createdAt,value
2017-07-07T14:44:16.533Z,205
2017-07-07T14:45:17.395Z,190
2017-07-07T14:46:15.758Z,210
2017-07-07T14:47:15.782Z,210
2017-07-07T14:48:16.103Z,195
2017-07-07T14:49:15.783Z,200
2017-07-07T14:50:17.677Z,220
2017-07-07T14:51:16.143Z,210
2017-07-07T14:52:15.816Z,210
2017-07-07T14:53:15.509Z,220
2017-07-07T14:54:16.148Z,235
2017-07-07T14:55:17.535Z,275
2017-07-07T14:56:16.158Z,255
2017-07-07T14:57:15.520Z,240
2017-07-07T14:58:15.851Z,230
2017-07-07T14:59:16.308Z,205
2017-07-07T15:00:17.098Z,205
2017-07-07T15:01:15.557Z,210
2017-07-07T15:02:15.877Z,215
2017-07-07T15:03:16.584Z,225
2017-07-07T15:04:16.262Z,240
2017-07-07T15:05:16.978Z,250
2017-07-07T15:06:17.051Z,240
2017-07-07T15:07:16.497Z,235
2017-07-07T15:08:15.990Z,235
2017-07-07T15:09:16.260Z,265
2017-07-07T15:10:17.755Z,235
2017-07-07T15:11:16.279Z,230
2017-07-07T15:12:15.963Z,225
2017-07-07T15:13:15.979Z,245
2017-07-07T15:14:16.825Z,240
2017-07-07T15:15:18.366Z,240
2017-07-07T15:16:16.318Z,230
2017-07-07T15:17:16.326Z,215
2017-07-07T15:18:15.717Z,200
2017-07-07T15:19:16.024Z,180
2017-07-07T15:20:17.004Z,175
2017-07-07T15:21:16.363Z,175
2017-07-07T15:22:15.716Z,175
2017-07-07T15:23:15.724Z,185
2017-07-07T15:24:16.890Z,195
2017-07-07T15:25:18.008Z,205
2017-07-07T15:26:16.717Z,205
2017-07-07T15:27:15.760Z,205
2017-07-07T15:28:16.434Z,205
2017-07-07T15:29:17.416Z,200
2017-07-07T15:30:17.839Z,200
2017-07-07T15:31:16.444Z,200
2017-07-07T15:32:16.774Z,205
2017-07-07T15:33:16.268Z,210
2017-07-07T15:34:16.458Z,215
2017-07-07T15:35:17.963Z,235
2017-07-07T15:36:16.168Z,235
2017-07-07T15:37:16.478Z,235
2017-07-07T15:38:15.897Z,235
2017-07-07T15:39:16.848Z,210
2017-07-07T15:40:17.641Z,205
2017-07-07T15:41:16.526Z,180
2017-07-07T15:42:16.528Z,165
2017-07-07T15:43:15.892Z,155
2017-07-07T15:44:16.334Z,145
2017-07-07T15:45:17.561Z,140
2017-07-07T15:46:16.571Z,140
2017-07-07T15:47:16.591Z,140
2017-07-07T15:48:16.259Z,140
2017-07-07T15:49:16.904Z,135
2017-07-07T15:50:18.301Z,130
2017-07-07T15:51:16.599Z,125
2017-07-07T15:52:16.314Z,120
2017-07-07T15:53:16.623Z,110
2017-07-07T15:54:15.983Z,105
2017-07-07T15:55:18.283Z,95
2017-07-07T15:56:16.648Z,90
2017-07-07T15:57:16.657Z,85
2017-07-07T15:58:16.657Z,80
2017-07-07T15:59:16.665Z,75
2017-07-07T16:00:22.114Z,75
2017-07-07T16:01:15.726Z,70
2017-07-07T16:02:16.370Z,70
2017-07-07T16:03:16.381Z,75
2017-07-07T16:04:16.384Z,80
2017-07-07T16:05:17.885Z,90
2017-07-07T16:06:16.432Z,95
2017-07-07T16:07:16.729Z,110
2017-07-07T16:08:16.419Z,135
2017-07-07T16:09:16.747Z,150
2017-07-07T16:10:17.556Z,170
2017-07-07T16:11:16.752Z,190
2017-07-07T16:12:16.447Z,230
2017-07-07T16:13:16.476Z,250
2017-07-07T16:14:16.789Z,270
2017-07-07T16:15:19.180Z,275
2017-07-07T16:16:16.485Z,265
2017-07-07T16:17:16.177Z,250
2017-07-07T16:18:17.134Z,260
2017-07-07T16:19:16.817Z,260
2017-07-07T16:20:17.293Z,255
2017-07-07T16:21:16.539Z,255
2017-07-07T16:22:17.160Z,245
2017-07-07T16:23:16.540Z,240
2017-07-07T16:24:16.544Z,255
2017-07-07T16:25:18.002Z,235
2017-07-07T16:26:16.242Z,215
2017-07-07T16:27:16.563Z,205
2017-07-07T16:28:16.572Z,200
2017-07-07T16:29:17.220Z,195
2017-07-07T16:30:19.623Z,195
2017-07-07T16:31:16.328Z,195
2017-07-07T16:32:16.286Z,195
2017-07-07T16:33:16.631Z,175
2017-07-07T16:34:17.257Z,165
2017-07-07T16:35:18.696Z,155
2017-07-07T16:36:16.645Z,145
2017-07-07T16:37:17.301Z,135
2017-07-07T16:38:17.297Z,130
2017-07-07T16:39:16.972Z,130
2017-07-07T16:40:18.147Z,125
2017-07-07T16:41:17.312Z,120
2017-07-07T16:42:17.317Z,105
2017-07-07T16:43:16.394Z,90
2017-07-07T16:44:16.703Z,85
2017-07-07T16:45:18.125Z,80
2017-07-07T16:46:18.770Z,85
2017-07-07T16:47:16.741Z,85
2017-07-07T16:48:17.039Z,85
2017-07-07T16:49:16.427Z,85
2017-07-07T16:50:18.625Z,85
2017-07-07T16:51:17.065Z,80
2017-07-07T16:52:16.781Z,80
2017-07-07T16:53:16.773Z,75
2017-07-07T16:54:17.419Z,70
2017-07-07T16:55:18.632Z,70
2017-07-07T16:56:17.111Z,65
2017-07-07T16:57:17.134Z,70
2017-07-07T16:58:16.802Z,70
2017-07-07T16:59:16.494Z,80
2017-07-07T17:00:18.618Z,80
2017-07-07T17:01:18.212Z,80
2017-07-07T17:02:17.186Z,80
2017-07-07T17:03:42.361Z,80
2017-07-07T17:04:16.850Z,75
2017-07-07T17:05:18.462Z,75
2017-07-07T17:06:17.185Z,75
2017-07-07T17:07:17.189Z,70
2017-07-07T17:08:17.202Z,70
2017-07-07T17:09:16.556Z,70
2017-07-07T17:10:18.386Z,70
2017-07-07T17:11:16.887Z,65
2017-07-07T17:12:16.576Z,65
2017-07-07T17:13:17.221Z,65
2017-07-07T17:14:17.554Z,70
2017-07-07T17:15:18.593Z,70
2017-07-07T17:16:21.170Z,75
2017-07-07T17:17:17.573Z,80
2017-07-07T17:18:17.258Z,85
2017-07-07T17:19:17.286Z,90
2017-07-07T17:20:19.310Z,90
2017-07-07T17:21:16.681Z,95
2017-07-07T17:22:16.640Z,95
2017-07-07T17:23:17.313Z,95
2017-07-07T17:24:17.357Z,95
2017-07-07T17:25:18.838Z,100
2017-07-07T17:26:17.313Z,100
2017-07-07T17:27:17.316Z,100
2017-07-07T17:28:17.001Z,100
2017-07-07T17:29:17.017Z,95
2017-07-07T17:30:18.136Z,95
2017-07-07T17:31:18.237Z,90
2017-07-07T17:32:16.722Z,85
2017-07-07T17:33:17.028Z,85
2017-07-07T17:34:17.053Z,85
2017-07-07T17:35:18.507Z,80
2017-07-07T17:36:17.694Z,80
2017-07-07T17:37:17.377Z,75
2017-07-07T17:38:17.066Z,75
2017-07-07T17:39:17.392Z,75
2017-07-07T17:40:19.013Z,75
2017-07-07T17:41:17.403Z,70
2017-07-07T17:42:17.114Z,70
2017-07-07T17:43:17.404Z,70
2017-07-07T17:44:17.444Z,70
2017-07-07T17:45:18.720Z,65
2017-07-07T17:46:17.433Z,65
2017-07-07T17:47:18.003Z,65
2017-07-07T17:48:17.481Z,70
2017-07-07T17:49:17.613Z,70
2017-07-07T17:50:18.688Z,70
2017-07-07T17:51:17.166Z,70
2017-07-07T17:52:18.955Z,75
2017-07-07T17:53:16.843Z,75
2017-07-07T17:54:17.485Z,80
2017-07-07T17:55:18.988Z,85
2017-07-07T17:56:17.594Z,95
2017-07-07T17:57:16.880Z,95
2017-07-07T17:58:17.194Z,100
2017-07-07T17:59:17.220Z,105
2017-07-07T18:00:18.248Z,105
2017-07-07T18:01:17.220Z,100
2017-07-07T18:02:17.753Z,100
2017-07-07T18:03:17.570Z,100
2017-07-07T18:04:16.934Z,95
2017-07-07T18:05:19.090Z,95
2017-07-07T18:06:17.249Z,95
2017-07-07T18:07:17.571Z,85
2017-07-07T18:08:17.258Z,85
2017-07-07T18:09:17.937Z,80
2017-07-07T18:10:18.119Z,85
2017-07-07T18:11:17.017Z,85
2017-07-07T18:12:17.390Z,90
2017-07-07T18:13:18.065Z,85
2017-07-07T18:14:17.357Z,85
2017-07-07T18:15:19.284Z,75
2017-07-07T18:16:17.614Z,70
2017-07-07T18:17:17.372Z,70
2017-07-07T18:18:17.058Z,65
2017-07-07T18:19:18.659Z,65
2017-07-07T18:20:20.902Z,65
2017-07-07T18:21:16.776Z,65
2017-07-07T18:22:17.421Z,70
2017-07-07T18:23:17.039Z,70
2017-07-07T18:24:17.459Z,75
2017-07-07T18:25:18.924Z,75
2017-07-07T18:26:17.054Z,75
2017-07-07T18:27:17.766Z,75
2017-07-07T18:28:17.747Z,70
2017-07-07T18:29:18.057Z,65
2017-07-07T18:30:18.665Z,65
2017-07-07T18:31:17.095Z,60
2017-07-07T18:32:18.738Z,60
2017-07-07T18:33:18.140Z,55
2017-07-07T18:34:17.426Z,55
2017-07-07T18:35:18.735Z,50
2017-07-07T18:36:17.450Z,50
2017-07-07T18:37:17.763Z,45
2017-07-07T18:38:17.451Z,40
2017-07-07T18:39:17.788Z,35
2017-07-07T18:40:18.166Z,30
2017-07-07T18:41:17.828Z,30
2017-07-07T18:42:17.803Z,25
2017-07-07T18:43:17.804Z,25
2017-07-07T18:44:17.179Z,25
2017-07-07T18:45:19.299Z,25
2017-07-07T18:46:17.832Z,25
2017-07-07T18:47:17.286Z,30
2017-07-07T18:48:17.521Z,30
2017-07-07T18:49:17.849Z,30
2017-07-07T18:50:19.351Z,30
2017-07-07T18:51:17.217Z,30
2017-07-07T18:52:17.532Z,30
2017-07-07T18:53:17.541Z,30
2017-07-07T18:54:17.869Z,30
2017-07-07T18:55:18.937Z,25
2017-07-07T18:56:17.925Z,25
2017-07-07T18:57:17.556Z,20
2017-07-07T18:58:18.218Z,20
2017-07-07T18:59:17.893Z,20
2017-07-07T19:00:19.890Z,20
2017-07-07T19:01:17.901Z,20
2017-07-07T19:02:17.569Z,20
2017-07-07T19:03:17.911Z,20
2017-07-07T19:04:18.250Z,20
2017-07-07T19:05:18.741Z,20
2017-07-07T19:06:17.618Z,15
2017-07-07T19:07:17.619Z,15
2017-07-07T19:08:17.303Z,15
2017-07-07T19:09:17.954Z,10
2017-07-07T19:10:20.253Z,10
2017-07-07T19:11:17.315Z,10
2017-07-07T19:12:17.380Z,10
2017-07-07T19:13:17.651Z,10
2017-07-07T19:14:17.343Z,10
2017-07-07T19:15:19.050Z,10
2017-07-07T19:16:17.341Z,10
2017-07-07T19:17:18.243Z,10
2017-07-07T19:18:18.333Z,10
2017-07-07T19:19:17.690Z,10
2017-07-07T19:20:19.263Z,5
2017-07-07T19:21:17.690Z,5
2017-07-07T19:22:17.692Z,5
2017-07-07T19:23:17.689Z,5
2017-07-07T19:24:17.392Z,5
2017-07-07T19:25:19.148Z,5
2017-07-07T19:26:18.028Z,5
2017-07-07T19:27:17.710Z,5
2017-07-07T19:28:17.717Z,5
2017-07-07T19:29:18.041Z,5
2017-07-07T19:30:19.534Z,5
2017-07-07T19:31:17.413Z,0
2017-07-07T19:32:18.874Z,0
2017-07-07T19:33:18.124Z,0
2017-07-07T19:34:18.082Z,0
2017-07-07T19:35:19.648Z,0
2017-07-07T19:36:17.756Z,0
2017-07-07T19:37:18.150Z,0
2017-07-07T19:38:18.091Z,0
2017-07-07T19:39:17.772Z,0
2017-07-07T19:40:20.157Z,0
2017-07-07T19:41:17.785Z,0
2017-07-07T19:42:17.525Z,0
2017-07-07T19:43:18.484Z,0
2017-07-07T19:44:18.135Z,0
2017-07-07T19:45:19.313Z,0
2017-07-07T19:46:18.126Z,0
2017-07-07T19:47:17.815Z,0
2017-07-07T19:48:18.245Z,0
2017-07-07T19:49:18.703Z,0
2017-07-07T19:50:19.003Z,0
2017-07-07T19:51:18.211Z,0
2017-07-07T19:52:17.528Z,0
2017-07-07T19:53:17.837Z,0
2017-07-07T19:54:18.488Z,0
2017-07-07T19:55:20.266Z,0
2017-07-07T19:56:17.860Z,0
2017-07-07T19:57:18.192Z,0
2017-07-07T19:58:18.190Z,0
2017-07-07T19:59:18.196Z,0
2017-07-07T20:00:19.294Z,0
2017-07-07T20:01:18.194Z,0
2017-07-07T20:02:17.878Z,0
2017-07-07T20:03:22.471Z,0
2017-07-07T20:04:18.547Z,0
2017-07-07T20:05:19.426Z,0
2017-07-07T20:06:17.582Z,0
2017-07-07T20:07:17.908Z,0
2017-07-07T20:08:17.610Z,0
2017-07-07T20:09:17.935Z,0
2017-07-07T20:10:20.327Z,0
2017-07-07T20:11:17.924Z,0
2017-07-07T20:12:17.611Z,0
2017-07-07T20:13:18.580Z,0
2017-07-07T20:14:17.933Z,0
2017-07-07T20:15:20.147Z,0
2017-07-07T20:16:18.353Z,0
2017-07-07T20:17:18.604Z,0
2017-07-07T20:18:18.719Z,0
2017-07-07T20:19:17.654Z,0
2017-07-07T20:20:19.209Z,0
2017-07-07T20:21:18.566Z,0
2017-07-07T20:22:18.018Z,0
2017-07-07T20:23:17.709Z,0
2017-07-07T20:24:18.627Z,0
2017-07-07T20:25:19.041Z,0
2017-07-07T20:26:18.008Z,0
2017-07-07T20:27:17.686Z,0
2017-07-07T20:28:18.018Z,0
2017-07-07T20:29:18.057Z,0
2017-07-07T20:30:19.221Z,0
2017-07-07T20:31:18.333Z,0
2017-07-07T20:32:18.329Z,0
2017-07-07T20:33:18.318Z,0
2017-07-07T20:34:18.050Z,0
2017-07-07T20:35:19.600Z,0
2017-07-07T20:36:18.039Z,0
2017-07-07T20:37:18.037Z,0
2017-07-07T20:38:18.360Z,0
2017-07-07T20:39:18.064Z,0
2017-07-07T20:40:20.601Z,0
2017-07-07T20:41:18.714Z,0
2017-07-07T20:42:18.382Z,0
2017-07-07T20:43:18.082Z,0
2017-07-07T20:44:18.467Z,0
2017-07-07T20:45:20.777Z,0
2017-07-07T20:46:17.753Z,0
2017-07-07T20:47:17.768Z,0
2017-07-07T20:48:19.286Z,0
2017-07-07T20:49:18.083Z,0
2017-07-07T20:50:19.505Z,0
2017-07-07T20:51:18.431Z,0
2017-07-07T20:52:18.102Z,0
2017-07-07T20:53:18.741Z,0
2017-07-07T20:54:18.116Z,0
2017-07-07T20:55:20.105Z,0
2017-07-07T20:56:17.798Z,0
2017-07-07T20:57:18.487Z,0
2017-07-07T20:58:18.451Z,0
2017-07-07T20:59:18.515Z,0
2017-07-07T21:00:19.761Z,0
2017-07-07T21:01:18.771Z,0
2017-07-07T21:02:18.798Z,0
2017-07-07T21:03:20.951Z,0
2017-07-07T21:04:18.153Z,0
2017-07-07T21:05:19.908Z,0
2017-07-07T21:06:18.158Z,0
2017-07-07T21:07:18.165Z,0
2017-07-07T21:08:18.490Z,0
2017-07-07T21:09:18.820Z,0
2017-07-07T21:10:19.880Z,0
